createdAt,value
2019-05-16T00:00:29.222Z,8.60
2019-05-16T00:02:58.831Z,8.40
2019-05-16T00:05:28.209Z,8.40
2019-05-16T00:07:58.948Z,8.40
2019-05-16T00:10:28.083Z,8.50
2019-05-16T00:12:59.670Z,8.40
2019-05-16T00:15:28.646Z,8.40
2019-05-16T00:17:58.422Z,8.50
2019-05-16T00:20:28.425Z,8.40
2019-05-16T00:22:58.956Z,8.50
2019-05-16T00:25:28.645Z,8.60
2019-05-16T00:27:58.723Z,8.70
2019-05-16T00:30:28.812Z,8.60
2019-05-16T00:32:58.709Z,8.60
2019-05-16T00:35:28.503Z,8.60
2019-05-16T00:37:58.946Z,8.60
2019-05-16T00:40:28.051Z,8.70
2019-05-16T00:42:58.874Z,8.70
2019-05-16T00:45:29.471Z,8.80
2019-05-16T00:47:58.460Z,8.70
2019-05-16T00:50:28.823Z,8.80
2019-05-16T00:52:58.995Z,8.80
2019-05-16T00:55:29.181Z,8.90
2019-05-16T00:57:59.094Z,9.00
2019-05-16T01:00:49.793Z,9.10
2019-05-16T01:03:20.252Z,9.10
2019-05-16T01:05:49.315Z,9.10
2019-05-16T01:08:18.919Z,9.20
2019-05-16T01:10:50.926Z,9.20
2019-05-16T01:13:18.705Z,9.20
2019-05-16T01:15:48.630Z,9.30
2019-05-16T01:18:18.695Z,9.30
2019-05-16T01:20:48.229Z,9.30
2019-05-16T01:23:18.305Z,9.40
2019-05-16T01:25:48.333Z,9.30
2019-05-16T01:28:18.194Z,9.40
2019-05-16T01:30:49.608Z,9.40
2019-05-16T01:33:19.157Z,9.50
2019-05-16T01:35:48.371Z,9.40
2019-05-16T01:38:20.267Z,9.50
2019-05-16T01:40:49.366Z,9.50
2019-05-16T01:43:18.254Z,9.40
2019-05-16T01:45:48.658Z,9.50
2019-05-16T01:48:19.128Z,9.40
2019-05-16T01:50:48.226Z,9.50
2019-05-16T01:53:17.896Z,9.40
2019-05-16T01:55:48.580Z,9.30
2019-05-16T01:58:19.891Z,9.30
2019-05-16T02:01:02.686Z,9.30
2019-05-16T02:03:20.078Z,9.30
2019-05-16T02:05:48.740Z,9.30
2019-05-16T02:08:18.274Z,9.30
2019-05-16T02:10:47.906Z,9.20
2019-05-16T02:13:18.095Z,9.30
2019-05-16T02:15:48.883Z,9.20
2019-05-16T02:18:18.446Z,9.20
2019-05-16T02:20:47.969Z,9.30
2019-05-16T02:23:18.785Z,9.30
2019-05-16T02:25:48.974Z,9.20
2019-05-16T02:28:19.734Z,9.20
2019-05-16T02:30:51.012Z,9.20
2019-05-16T02:33:21.277Z,9.20
2019-05-16T02:35:54.711Z,9.10
2019-05-16T02:38:21.130Z,9.20
2019-05-16T02:40:51.245Z,9.30
2019-05-16T02:43:21.887Z,9.30
2019-05-16T02:45:51.953Z,9.20
2019-05-16T02:48:21.353Z,9.20
2019-05-16T02:50:51.225Z,9.10
2019-05-16T02:53:22.296Z,9.20
2019-05-16T02:55:51.862Z,9.20
2019-05-16T02:58:23.497Z,9.20
2019-05-16T03:00:52.490Z,9.20
2019-05-16T03:03:21.803Z,9.30
2019-05-16T03:05:51.263Z,9.30
2019-05-16T03:08:21.224Z,9.30
2019-05-16T03:10:52.002Z,9.30
2019-05-16T03:13:22.902Z,9.30
2019-05-16T03:15:51.537Z,9.30
2019-05-16T03:18:23.637Z,9.20
2019-05-16T03:20:54.710Z,9.30
2019-05-16T03:23:23.588Z,9.30
2019-05-16T03:25:52.327Z,9.30
2019-05-16T03:28:22.283Z,9.30
2019-05-16T03:30:54.307Z,9.30
2019-05-16T03:33:30.540Z,9.30
2019-05-16T03:35:54.356Z,9.30
2019-05-16T03:38:22.227Z,9.40
2019-05-16T03:40:51.297Z,9.40
2019-05-16T03:43:21.852Z,9.50
2019-05-16T03:45:52.132Z,9.40
2019-05-16T03:48:21.510Z,9.50
2019-05-16T03:50:50.863Z,9.40
2019-05-16T03:53:21.185Z,9.40
2019-05-16T03:55:51.800Z,9.50
2019-05-16T03:58:22.431Z,9.50
2019-05-16T04:00:54.808Z,9.50
2019-05-16T04:03:27.923Z,9.50
2019-05-16T04:05:54.192Z,9.50
2019-05-16T04:08:25.131Z,9.40
2019-05-16T04:10:53.347Z,9.50
2019-05-16T04:13:22.340Z,9.60
2019-05-16T04:15:52.580Z,9.60
2019-05-16T04:18:22.388Z,9.60
2019-05-16T04:20:52.676Z,9.60
2019-05-16T04:23:21.917Z,9.70
2019-05-16T04:25:52.415Z,9.70
2019-05-16T04:28:22.614Z,9.70
2019-05-16T04:30:52.441Z,9.70
2019-05-16T04:33:22.441Z,9.70
2019-05-16T04:35:52.671Z,9.70
2019-05-16T04:38:35.094Z,9.60
2019-05-16T04:40:52.636Z,9.70
2019-05-16T04:43:22.305Z,9.70
2019-05-16T04:45:52.572Z,9.80
2019-05-16T04:48:22.575Z,9.80
2019-05-16T04:50:52.313Z,9.80
2019-05-16T04:53:21.698Z,9.80
2019-05-16T04:55:51.921Z,9.90
2019-05-16T04:58:23.957Z,10.00
2019-05-16T05:00:52.547Z,10.00
2019-05-16T05:03:22.481Z,10.00
2019-05-16T05:05:51.857Z,10.10
2019-05-16T05:08:21.954Z,10.10
2019-05-16T05:10:51.954Z,10.10
2019-05-16T05:13:22.044Z,10.20
2019-05-16T05:15:51.336Z,10.30
2019-05-16T05:18:21.385Z,10.20
2019-05-16T05:20:52.349Z,10.20
2019-05-16T05:23:21.115Z,10.20
2019-05-16T05:25:51.278Z,10.30
2019-05-16T05:28:21.203Z,10.40
2019-05-16T05:30:50.557Z,10.40
2019-05-16T05:33:20.958Z,10.60
2019-05-16T05:35:50.865Z,10.80
2019-05-16T05:38:21.348Z,10.90
2019-05-16T05:40:51.023Z,10.70
2019-05-16T05:43:21.534Z,10.80
2019-05-16T05:45:51.590Z,10.90
2019-05-16T05:48:21.502Z,10.90
2019-05-16T05:50:51.618Z,10.90
2019-05-16T05:53:20.979Z,10.80
2019-05-16T05:55:51.554Z,10.90
2019-05-16T05:58:21.338Z,10.90
2019-05-16T06:00:51.991Z,11.10
2019-05-16T06:03:22.577Z,11.20
2019-05-16T06:05:50.878Z,11.30
2019-05-16T06:08:20.570Z,11.40
2019-05-16T06:10:50.473Z,11.50
2019-05-16T06:13:20.755Z,11.50
2019-05-16T06:15:51.008Z,11.60
2019-05-16T06:18:20.451Z,11.70
2019-05-16T06:20:51.236Z,11.70
2019-05-16T06:23:20.813Z,11.70
2019-05-16T06:25:50.732Z,11.90
2019-05-16T06:28:20.811Z,11.90
2019-05-16T06:30:51.727Z,12.20
2019-05-16T06:33:20.256Z,12.10
2019-05-16T06:35:51.295Z,12.30
2019-05-16T06:38:21.049Z,12.70
2019-05-16T06:40:52.543Z,12.90
2019-05-16T06:43:20.651Z,12.90
2019-05-16T06:45:51.246Z,12.90
2019-05-16T06:48:21.103Z,12.90
2019-05-16T06:50:51.404Z,13.00
2019-05-16T06:53:21.228Z,13.30
2019-05-16T06:55:50.258Z,13.40
2019-05-16T06:58:21.756Z,13.30
2019-05-16T07:00:52.278Z,13.10
2019-05-16T07:03:20.616Z,13.30
2019-05-16T07:05:50.564Z,13.40
2019-05-16T07:08:20.931Z,13.50
2019-05-16T07:10:51.105Z,13.30
2019-05-16T07:13:20.068Z,13.20
2019-05-16T07:15:50.038Z,13.10
2019-05-16T07:18:20.962Z,13.20
2019-05-16T07:20:51.032Z,13.20
2019-05-16T07:23:20.911Z,13.20
2019-05-16T07:25:50.723Z,13.30
2019-05-16T07:28:20.808Z,13.20
2019-05-16T07:30:50.349Z,13.20
2019-05-16T07:33:21.260Z,13.60
2019-05-16T07:35:51.326Z,13.60
2019-05-16T07:38:20.545Z,13.40
2019-05-16T07:40:51.093Z,13.60
2019-05-16T07:43:20.442Z,13.80
2019-05-16T07:45:51.475Z,14.10
2019-05-16T07:48:21.486Z,14.50
2019-05-16T07:50:50.596Z,14.40
2019-05-16T07:53:21.447Z,14.30
2019-05-16T07:55:50.882Z,13.90
2019-05-16T07:58:21.659Z,14.20
2019-05-16T08:01:02.045Z,14.80
2019-05-16T08:03:21.054Z,14.60
2019-05-16T08:05:51.647Z,14.60
2019-05-16T08:08:24.055Z,14.40
2019-05-16T08:10:51.957Z,14.50
2019-05-16T08:13:21.319Z,14.40
2019-05-16T08:15:51.001Z,14.30
2019-05-16T08:18:21.386Z,14.30
2019-05-16T08:20:52.348Z,13.90
2019-05-16T08:23:22.437Z,14.10
2019-05-16T08:25:51.404Z,14.30
2019-05-16T08:28:22.247Z,14.60
2019-05-16T08:30:52.742Z,14.50
2019-05-16T08:33:22.035Z,14.90
2019-05-16T08:38:21.831Z,16.60
2019-05-16T08:41:06.240Z,16.90
2019-05-16T08:43:21.891Z,17.20
2019-05-16T08:45:51.927Z,17.50
2019-05-16T08:50:10.872Z,15.40
2019-05-16T08:50:11.521Z,17.30
2019-05-16T08:50:54.779Z,16.30
2019-05-16T08:53:22.549Z,16.50
2019-05-16T08:55:52.219Z,16.40
2019-05-16T08:58:22.509Z,16.10
2019-05-16T09:00:55.192Z,16.60
2019-05-16T09:03:22.420Z,16.20
2019-05-16T09:05:53.618Z,15.50
2019-05-16T09:08:21.710Z,14.80
2019-05-16T09:11:00.957Z,14.60
2019-05-16T09:13:20.716Z,15.00
2019-05-16T09:15:49.522Z,15.70
2019-05-16T09:18:18.269Z,15.50
2019-05-16T09:20:50.009Z,16.50
2019-05-16T09:23:18.925Z,15.80
2019-05-16T09:25:48.734Z,16.20
2019-05-16T09:28:18.105Z,16.50
2019-05-16T09:30:47.884Z,16.80
2019-05-16T09:33:18.439Z,15.70
2019-05-16T09:35:47.852Z,15.90
2019-05-16T09:38:20.434Z,16.30
2019-05-16T09:40:48.019Z,16.20
2019-05-16T09:43:18.328Z,16.00
2019-05-16T09:45:47.413Z,15.40
2019-05-16T09:48:19.011Z,16.00
2019-05-16T09:50:47.174Z,16.10
2019-05-16T09:53:17.006Z,16.70
2019-05-16T09:55:47.140Z,16.30
2019-05-16T09:58:18.363Z,16.60
2019-05-16T10:00:47.641Z,16.20
2019-05-16T10:03:20.319Z,16.20
2019-05-16T10:05:47.183Z,15.80
2019-05-16T10:08:17.333Z,15.70
2019-05-16T10:10:46.394Z,15.50
2019-05-16T10:13:18.028Z,14.90
2019-05-16T10:15:47.309Z,14.90
2019-05-16T10:18:16.871Z,15.00
2019-05-16T10:20:45.882Z,15.00
2019-05-16T10:23:17.890Z,14.90
2019-05-16T10:25:47.690Z,15.00
2019-05-16T10:28:17.364Z,14.80
2019-05-16T10:30:47.138Z,14.70
2019-05-16T10:33:18.869Z,14.50
2019-05-16T10:35:47.977Z,14.60
2019-05-16T10:38:17.204Z,14.80
2019-05-16T10:40:47.577Z,15.00
2019-05-16T10:43:17.246Z,14.90
2019-05-16T10:45:46.475Z,15.20
2019-05-16T10:48:17.640Z,15.40
2019-05-16T10:50:47.774Z,15.30
2019-05-16T10:53:39.861Z,15.60
2019-05-16T10:55:47.746Z,15.90
2019-05-16T10:58:33.070Z,15.70
2019-05-16T11:01:11.030Z,15.90
2019-05-16T11:03:17.462Z,16.10
2019-05-16T11:06:01.323Z,15.90
2019-05-16T11:08:17.527Z,15.80
2019-05-16T11:10:47.653Z,15.90
2019-05-16T11:13:19.826Z,16.30
2019-05-16T11:15:47.724Z,16.90
2019-05-16T11:18:17.551Z,16.60
2019-05-16T11:20:49.122Z,16.80
2019-05-16T11:23:22.240Z,17.40
2019-05-16T11:25:47.193Z,17.40
2019-05-16T11:28:17.687Z,16.80
2019-05-16T11:30:47.575Z,16.30
2019-05-16T11:33:17.364Z,16.20
2019-05-16T11:35:47.818Z,16.20
2019-05-16T11:38:17.788Z,16.00
2019-05-16T11:40:47.672Z,15.90
2019-05-16T11:43:21.107Z,15.90
2019-05-16T11:45:47.434Z,15.90
2019-05-16T11:48:17.073Z,15.90
2019-05-16T11:50:48.098Z,15.70
2019-05-16T11:53:17.516Z,15.50
2019-05-16T11:55:55.155Z,15.30
2019-05-16T11:58:18.218Z,15.30
2019-05-16T12:00:48.375Z,15.20
2019-05-16T12:03:17.348Z,15.10
2019-05-16T12:05:48.192Z,15.60
2019-05-16T12:08:17.478Z,15.10
2019-05-16T12:10:47.240Z,15.00
2019-05-16T12:13:25.191Z,15.00
2019-05-16T12:15:47.501Z,14.80
2019-05-16T12:18:17.277Z,14.60
2019-05-16T12:20:46.374Z,14.60
2019-05-16T12:23:17.164Z,14.60
2019-05-16T12:25:47.372Z,15.00
2019-05-16T12:28:16.835Z,14.90
2019-05-16T12:30:47.168Z,14.80
2019-05-16T12:33:18.743Z,15.00
2019-05-16T12:35:47.665Z,15.40
2019-05-16T12:38:17.208Z,15.80
2019-05-16T12:40:47.897Z,15.90
2019-05-16T12:43:17.953Z,15.70
2019-05-16T12:45:47.443Z,16.10
2019-05-16T12:48:19.929Z,15.70
2019-05-16T12:50:47.963Z,16.10
2019-05-16T12:53:16.942Z,14.80
2019-05-16T12:55:47.643Z,14.90
2019-05-16T12:58:24.958Z,15.10
2019-05-16T13:00:54.009Z,15.20
2019-05-16T13:03:16.626Z,15.70
2019-05-16T13:05:47.580Z,15.60
2019-05-16T13:08:17.409Z,15.60
2019-05-16T13:10:47.111Z,15.10
2019-05-16T13:13:17.730Z,15.40
2019-05-16T13:15:47.598Z,15.50
2019-05-16T13:18:17.056Z,15.10
2019-05-16T13:20:46.727Z,14.60
2019-05-16T13:23:18.291Z,14.20
2019-05-16T13:25:48.126Z,14.20
2019-05-16T13:28:17.157Z,14.00
2019-05-16T13:30:47.218Z,13.70
2019-05-16T13:33:17.810Z,13.20
2019-05-16T13:35:47.458Z,13.10
2019-05-16T13:38:17.229Z,13.10
2019-05-16T13:40:46.396Z,13.10
2019-05-16T13:43:17.260Z,12.80
2019-05-16T13:45:47.221Z,12.70
2019-05-16T13:48:17.211Z,12.70
2019-05-16T13:50:47.388Z,12.70
2019-05-16T13:53:16.471Z,12.70
2019-05-16T13:55:48.071Z,13.10
2019-05-16T13:58:17.895Z,13.40
2019-05-16T14:00:48.101Z,13.20
2019-05-16T14:03:17.915Z,12.60
2019-05-16T14:05:47.837Z,12.40
2019-05-16T14:08:17.114Z,12.40
2019-05-16T14:10:48.715Z,12.30
2019-05-16T14:13:16.563Z,12.50
2019-05-16T14:15:47.388Z,12.20
2019-05-16T14:18:17.717Z,12.30
2019-05-16T14:20:46.613Z,12.50
2019-05-16T14:23:17.635Z,12.90
2019-05-16T14:25:47.963Z,12.70
2019-05-16T14:28:17.382Z,12.60
2019-05-16T14:30:46.882Z,12.80
2019-05-16T14:33:17.254Z,12.70
2019-05-16T14:35:47.263Z,12.30
2019-05-16T14:38:17.677Z,12.10
2019-05-16T14:40:57.103Z,11.60
2019-05-16T14:43:27.017Z,11.50
2019-05-16T14:45:57.076Z,11.70
2019-05-16T14:48:27.818Z,11.60
2019-05-16T14:50:57.437Z,11.50
2019-05-16T14:53:28.476Z,11.60
2019-05-16T14:55:57.639Z,11.50
2019-05-16T14:58:30.663Z,11.50
2019-05-16T15:00:57.649Z,11.20
2019-05-16T15:03:27.269Z,11.30
2019-05-16T15:05:58.771Z,11.50
2019-05-16T15:08:26.574Z,11.80
2019-05-16T15:10:57.326Z,11.90
2019-05-16T15:13:27.809Z,11.60
2019-05-16T15:15:56.941Z,11.50
2019-05-16T15:18:27.808Z,11.60
2019-05-16T15:20:57.460Z,11.40
2019-05-16T15:23:28.475Z,11.50
2019-05-16T15:25:56.706Z,11.30
2019-05-16T15:28:29.995Z,11.50
2019-05-16T15:30:57.451Z,11.80
2019-05-16T15:33:27.351Z,12.10
2019-05-16T15:35:57.765Z,12.30
2019-05-16T15:38:27.175Z,12.20
2019-05-16T15:40:57.296Z,12.10
2019-05-16T15:43:27.465Z,12.00
2019-05-16T15:45:57.912Z,11.80
2019-05-16T15:48:27.440Z,11.90
2019-05-16T15:50:59.393Z,11.90
2019-05-16T15:53:27.201Z,11.80
2019-05-16T15:55:57.722Z,11.90
2019-05-16T15:58:26.820Z,12.00
2019-05-16T16:00:57.875Z,12.10
2019-05-16T16:03:27.189Z,11.90
2019-05-16T16:05:56.314Z,11.90
2019-05-16T16:08:28.264Z,11.80
2019-05-16T16:10:55.541Z,11.90
2019-05-16T16:13:26.631Z,11.90
2019-05-16T16:15:55.418Z,11.90
2019-05-16T16:18:27.099Z,12.10
2019-05-16T16:20:57.102Z,12.00
2019-05-16T16:23:27.374Z,12.00
2019-05-16T16:25:59.786Z,12.00
2019-05-16T16:28:27.236Z,12.40
2019-05-16T16:30:56.975Z,12.90
2019-05-16T16:33:29.747Z,12.80
2019-05-16T16:35:57.133Z,13.10
2019-05-16T16:38:26.150Z,13.10
2019-05-16T16:40:57.146Z,13.00
2019-05-16T16:43:25.291Z,13.00
2019-05-16T16:46:06.114Z,12.80
2019-05-16T16:48:26.515Z,12.90
2019-05-16T16:50:57.197Z,12.70
2019-05-16T16:53:27.023Z,12.70
2019-05-16T16:55:56.804Z,12.80
2019-05-16T16:58:26.643Z,12.70
2019-05-16T17:00:55.560Z,12.90
2019-05-16T17:03:24.264Z,12.80
2019-05-16T17:05:53.044Z,12.80
2019-05-16T17:08:23.447Z,12.90
2019-05-16T17:10:53.002Z,12.80
2019-05-16T17:13:21.629Z,12.80
2019-05-16T17:15:50.317Z,12.80
2019-05-16T17:18:19.103Z,12.80
2019-05-16T17:20:47.928Z,12.90
2019-05-16T17:23:17.314Z,12.90
2019-05-16T17:25:47.160Z,12.90
2019-05-16T17:28:17.459Z,13.00
2019-05-16T17:30:47.055Z,13.10
2019-05-16T17:33:18.283Z,13.20
2019-05-16T17:35:48.820Z,13.20
2019-05-16T17:38:17.269Z,13.10
2019-05-16T17:40:46.539Z,13.00
2019-05-16T17:43:16.459Z,12.90
2019-05-16T17:45:47.099Z,12.90
2019-05-16T17:48:17.572Z,12.90
2019-05-16T17:50:46.916Z,12.90
2019-05-16T17:53:17.355Z,13.00
2019-05-16T17:55:47.325Z,13.00
2019-05-16T17:58:16.557Z,13.00
2019-05-16T18:00:47.207Z,12.90
2019-05-16T18:03:17.336Z,12.90
2019-05-16T18:05:47.452Z,12.90
2019-05-16T18:08:16.477Z,12.90
2019-05-16T18:10:47.329Z,12.90
2019-05-16T18:13:16.137Z,12.90
2019-05-16T18:15:47.144Z,12.90
2019-05-16T18:18:17.605Z,12.90
2019-05-16T18:20:55.707Z,13.00
2019-05-16T18:23:16.553Z,13.00
2019-05-16T18:25:46.999Z,12.90
2019-05-16T18:28:17.523Z,13.00
2019-05-16T18:30:47.238Z,12.90
2019-05-16T18:33:16.728Z,13.00
2019-05-16T18:35:47.263Z,12.90
2019-05-16T18:38:16.153Z,12.90
2019-05-16T18:40:47.165Z,13.00
2019-05-16T18:43:16.653Z,13.00
2019-05-16T18:45:47.210Z,13.00
2019-05-16T18:48:16.263Z,13.00
2019-05-16T18:50:44.945Z,13.00
2019-05-16T18:53:13.698Z,13.00
2019-05-16T18:55:42.473Z,13.00
2019-05-16T18:58:11.078Z,13.00
2019-05-16T19:00:39.800Z,12.90
2019-05-16T19:03:08.558Z,12.90
2019-05-16T19:05:39.798Z,13.00
2019-05-16T19:08:08.605Z,13.00
2019-05-16T19:10:37.300Z,12.90
2019-05-16T19:13:07.979Z,12.90
2019-05-16T19:15:37.653Z,12.80
2019-05-16T19:18:06.929Z,12.80
2019-05-16T19:20:37.512Z,12.80
2019-05-16T19:23:07.379Z,12.70
2019-05-16T19:25:36.547Z,12.70
2019-05-16T19:28:06.793Z,12.60
2019-05-16T19:30:38.171Z,12.70
2019-05-16T19:33:07.171Z,12.60
2019-05-16T19:35:36.478Z,12.60
2019-05-16T19:38:06.755Z,12.50
2019-05-16T19:40:37.790Z,12.60
2019-05-16T19:43:07.323Z,12.60
2019-05-16T19:45:37.300Z,12.50
2019-05-16T19:48:07.363Z,12.40
2019-05-16T19:50:37.297Z,12.40
2019-05-16T19:53:07.666Z,12.40
2019-05-16T19:55:36.660Z,12.30
2019-05-16T19:58:06.880Z,12.30
2019-05-16T20:00:37.435Z,12.30
2019-05-16T20:03:07.749Z,12.30
2019-05-16T20:05:37.582Z,12.20
2019-05-16T20:08:07.035Z,12.20
2019-05-16T20:10:36.633Z,12.30
2019-05-16T20:13:07.813Z,12.20
2019-05-16T20:15:36.940Z,12.10
2019-05-16T20:18:07.806Z,12.10
2019-05-16T20:20:37.220Z,12.10
2019-05-16T20:23:06.953Z,12.10
2019-05-16T20:25:36.668Z,12.00
2019-05-16T20:28:08.421Z,12.00
2019-05-16T20:30:37.154Z,11.90
2019-05-16T20:33:08.994Z,12.00
2019-05-16T20:35:37.475Z,11.90
2019-05-16T20:38:06.996Z,12.00
2019-05-16T20:40:37.437Z,11.90
2019-05-16T20:43:07.809Z,12.00
2019-05-16T20:45:39.504Z,12.00
2019-05-16T20:48:12.111Z,12.00
2019-05-16T20:50:37.492Z,11.90
2019-05-16T20:53:07.236Z,11.90
2019-05-16T20:55:37.665Z,11.90
2019-05-16T20:58:07.628Z,11.90
2019-05-16T21:00:38.023Z,11.90
2019-05-16T21:03:07.216Z,11.90
2019-05-16T21:05:38.387Z,11.90
2019-05-16T21:08:06.824Z,11.90
2019-05-16T21:10:35.722Z,11.90
2019-05-16T21:13:06.658Z,12.00
2019-05-16T21:15:37.058Z,12.00
2019-05-16T21:18:07.328Z,11.90
2019-05-16T21:20:38.686Z,11.80
2019-05-16T21:23:07.374Z,11.70
2019-05-16T21:25:37.126Z,11.70
2019-05-16T21:28:07.895Z,11.70
2019-05-16T21:30:36.792Z,11.60
2019-05-16T21:33:05.668Z,11.60
2019-05-16T21:35:36.402Z,11.60
2019-05-16T21:38:08.675Z,11.50
2019-05-16T21:40:37.152Z,11.50
2019-05-16T21:43:07.581Z,11.30
2019-05-16T21:45:37.158Z,11.30
2019-05-16T21:48:07.419Z,11.30
2019-05-16T21:50:36.858Z,11.30
2019-05-16T21:53:07.297Z,11.30
2019-05-16T21:55:36.832Z,11.30
2019-05-16T21:58:05.901Z,11.30
2019-05-16T22:00:39.302Z,11.30
2019-05-16T22:03:09.083Z,11.30
2019-05-16T22:05:37.774Z,11.20
2019-05-16T22:08:07.482Z,11.20
2019-05-16T22:10:37.395Z,11.20
2019-05-16T22:13:07.752Z,11.20
2019-05-16T22:15:36.839Z,11.10
2019-05-16T22:18:07.182Z,11.20
2019-05-16T22:20:36.262Z,11.10
2019-05-16T22:23:06.970Z,11.10
2019-05-16T22:25:35.466Z,11.10
2019-05-16T22:28:06.965Z,11.10
2019-05-16T22:30:36.524Z,11.20
2019-05-16T22:33:08.959Z,11.10
2019-05-16T22:35:37.351Z,11.10
2019-05-16T22:38:06.527Z,11.10
2019-05-16T22:40:37.386Z,11.00
2019-05-16T22:43:09.704Z,11.10
2019-05-16T22:45:37.422Z,11.10
2019-05-16T22:48:07.055Z,11.20
2019-05-16T22:50:36.443Z,11.10
2019-05-16T22:53:06.478Z,11.10
2019-05-16T22:55:37.216Z,11.20
2019-05-16T22:58:07.376Z,11.20
2019-05-16T23:00:39.325Z,11.10
2019-05-16T23:03:07.015Z,11.20
2019-05-16T23:05:36.881Z,11.20
2019-05-16T23:08:09.856Z,11.20
2019-05-16T23:10:36.925Z,11.20
2019-05-16T23:13:06.743Z,11.10
2019-05-16T23:15:35.809Z,11.10
2019-05-16T23:18:06.740Z,11.10
2019-05-16T23:20:37.016Z,11.20
2019-05-16T23:23:07.132Z,11.10
2019-05-16T23:25:37.079Z,11.10
2019-05-16T23:28:07.726Z,11.10
2019-05-16T23:30:37.047Z,11.10
2019-05-16T23:33:07.247Z,11.10
2019-05-16T23:35:37.649Z,11.20
2019-05-16T23:38:18.606Z,11.10
2019-05-16T23:40:37.647Z,11.20
2019-05-16T23:43:07.615Z,11.10
2019-05-16T23:45:37.520Z,11.10
2019-05-16T23:48:10.501Z,11.10
2019-05-16T23:50:37.086Z,11.20
2019-05-16T23:53:07.422Z,11.10
2019-05-16T23:55:37.260Z,11.10
2019-05-16T23:58:07.076Z,11.10
